Time;durP1;ratioP1;P1;durP2;ratioP2;P2;SDS_P1;SDS_P2;PMS_P1;PMS_P2;Temp;Humidity;BMP_temperature;BMP_pressure;BME280_temperature;BME280_humidity;BME280_pressure;Samples;Min_cycle;Max_cycle;Signal;HPM_P1;HPM_P2
2023/01/24 06:03:24;;;;;;;50.77;36.60;;;;;;;41.44;36.57;100919.56;5107105;23;21030;-82
2023/01/24 06:05:53;;;;;;;46.63;33.90;;;;;;;41.41;36.89;100925.66;4877251;29;20434;-82
2023/01/24 06:08:19;;;;;;;42.33;29.23;;;;;;;41.36;36.84;100926.63;4873792;29;20426;-78
2023/01/24 06:10:46;;;;;;;49.73;35.50;;;;;;;41.34;36.98;100923.44;4877597;29;20411;-78
2023/01/24 06:13:12;;;;;;;52.63;32.30;;;;;;;41.29;36.60;100924.38;4878869;29;20463;-78
2023/01/24 06:15:39;;;;;;;52.23;35.00;;;;;;;41.30;36.79;100923.25;4876200;29;20423;-78
2023/01/24 06:18:07;;;;;;;42.83;31.30;;;;;;;41.33;37.34;100927.28;4878081;29;20463;-78
2023/01/24 06:20:33;;;;;;;55.83;31.63;;;;;;;41.33;36.93;100932.75;4878056;29;20419;-76
2023/01/24 06:23:05;;;;;;;49.23;34.87;;;;;;;41.35;36.72;100933.19;4878542;29;20434;-77
2023/01/24 06:25:31;;;;;;;45.03;33.40;;;;;;;41.37;36.83;100932.88;4878699;29;20427;-81
2023/01/24 06:27:58;;;;;;;60.63;36.90;;;;;;;41.36;36.71;100925.81;4878514;29;20427;-82
2023/01/24 06:30:24;;;;;;;62.97;39.63;;;;;;;41.38;36.61;100935.28;4878176;29;21005;-82
2023/01/24 06:32:53;;;;;;;68.37;47.07;;;;;;;41.42;36.99;100935.41;4874139;29;20884;-76
2023/01/24 06:35:37;;;;;;;57.77;39.30;;;;;;;41.42;36.92;100941.66;4878683;29;20438;-83
2023/01/24 06:38:04;;;;;;;54.80;38.90;;;;;;;41.47;36.70;100944.19;4890329;29;20419;-81
2023/01/24 06:40:30;;;;;;;64.90;44.17;;;;;;;41.42;36.71;100947.09;4873960;29;20423;-81
2023/01/24 06:42:57;;;;;;;64.03;46.40;;;;;;;41.44;36.71;100953.03;4879684;29;20514;-84
2023/01/24 06:45:23;;;;;;;66.20;47.47;;;;;;;41.45;37.03;100954.63;4877859;29;20439;-76
2023/01/24 06:47:49;;;;;;;78.07;49.00;;;;;;;41.47;36.96;100957.00;4878873;29;20492;-78
2023/01/24 06:50:29;;;;;;;64.63;53.23;;;;;;;41.38;37.11;100958.97;4864091;29;20827;-78
2023/01/24 06:52:55;;;;;;;88.43;63.00;;;;;;;41.40;36.92;100962.16;4867886;29;20439;-77
2023/01/24 06:55:21;;;;;;;104.83;77.27;;;;;;;41.42;36.88;100960.69;4876255;29;20491;-78
2023/01/24 06:57:47;;;;;;;109.07;74.17;;;;;;;41.44;36.64;100966.63;4874552;29;20442;-83
2023/01/24 07:00:14;;;;;;;82.73;55.30;;;;;;;41.47;36.81;100976.06;4876125;29;20434;-85
2023/01/24 07:02:40;;;;;;;82.83;55.80;;;;;;;41.45;36.87;100972.88;4876356;29;20517;-83
2023/01/24 07:05:06;;;;;;;80.03;60.00;;;;;;;41.45;37.24;100976.41;4862172;29;20516;-83
2023/01/24 07:07:32;;;;;;;92.07;61.37;;;;;;;41.50;36.95;100981.66;4862219;29;20830;-78
2023/01/24 07:09:58;;;;;;;86.00;65.50;;;;;;;41.55;36.70;100978.72;4870158;29;21016;-77
2023/01/24 07:12:24;;;;;;;67.13;52.67;;;;;;;41.51;36.78;100979.72;4876154;29;20971;-76
2023/01/24 07:14:50;;;;;;;84.50;55.60;;;;;;;41.51;37.06;100985.19;4874507;29;20454;-77
2023/01/24 07:17:16;;;;;;;80.37;53.43;;;;;;;41.53;36.62;100980.19;4868726;29;20956;-82
2023/01/24 07:19:42;;;;;;;83.70;54.33;;;;;;;41.57;36.86;100981.16;4882702;29;20460;-77
2023/01/24 07:22:12;;;;;;;67.83;50.60;;;;;;;41.63;36.46;100993.44;4875795;29;20449;-82
2023/01/24 07:24:39;;;;;;;57.33;43.57;;;;;;;41.65;36.47;100991.19;4884151;29;20426;-81
2023/01/24 07:27:05;;;;;;;54.33;34.33;;;;;;;41.65;36.53;100993.91;4863779;29;20479;-83
2023/01/24 07:29:31;;;;;;;52.90;32.20;;;;;;;41.65;36.42;100993.09;4884656;29;20422;-85
2023/01/24 07:31:57;;;;;;;51.43;32.53;;;;;;;41.68;36.27;101000.59;4877805;29;20459;-83
2023/01/24 07:34:23;;;;;;;47.23;31.63;;;;;;;41.66;36.68;101000.94;4865075;29;20446;-82
2023/01/24 07:36:49;;;;;;;44.60;34.73;;;;;;;41.66;36.44;101006.38;4862067;29;20591;-83
2023/01/24 07:39:16;;;;;;;45.97;32.90;;;;;;;41.66;36.49;101011.84;4880013;29;20462;-79
2023/01/24 07:41:45;;;;;;;44.83;31.73;;;;;;;41.74;36.54;101012.91;4863526;29;20464;-77
2023/01/24 07:44:11;;;;;;;40.07;29.90;;;;;;;41.71;36.65;101008.94;4861030;29;20471;-77
2023/01/24 07:46:38;;;;;;;39.03;29.70;;;;;;;41.77;36.35;101013.09;4862404;29;20964;-77
2023/01/24 07:49:04;;;;;;;47.13;33.93;;;;;;;41.78;36.41;101016.63;4872984;29;20420;-77
2023/01/24 07:51:30;;;;;;;46.10;31.27;;;;;;;41.84;36.50;101013.38;4883843;29;20435;-82
2023/01/24 07:53:56;;;;;;;40.40;31.40;;;;;;;41.82;36.28;101023.81;4875631;29;20979;-83
2023/01/24 07:56:22;;;;;;;46.37;30.33;;;;;;;41.78;36.20;101020.13;4859121;29;20443;-85
2023/01/24 07:58:48;;;;;;;37.50;29.03;;;;;;;41.86;36.11;101023.94;4871876;29;21030;-85
2023/01/24 08:01:18;;;;;;;41.23;29.37;;;;;;;41.82;36.41;101025.72;4864611;29;20955;-85
2023/01/24 08:03:45;;;;;;;42.37;28.80;;;;;;;41.82;36.71;101029.25;4890807;29;20494;-85
2023/01/24 08:06:11;;;;;;;51.10;30.90;;;;;;;41.90;36.15;101027.59;4861697;29;20503;-85
2023/01/24 08:08:37;;;;;;;34.87;26.87;;;;;;;41.84;36.35;101027.00;4875274;29;20436;-85
2023/01/24 08:11:03;;;;;;;42.00;24.90;;;;;;;41.80;36.47;101034.22;4872875;29;20437;-85
2023/01/24 08:13:29;;;;;;;38.20;24.60;;;;;;;41.86;36.16;101038.34;4885672;29;20521;-91
2023/01/24 08:15:55;;;;;;;28.80;18.57;;;;;;;41.77;35.93;101037.63;4876632;29;20455;-89
2023/01/24 08:18:20;;;;;;;40.17;20.73;;;;;;;41.88;35.91;101042.69;4873653;29;20847;-85
2023/01/24 08:20:48;;;;;;;35.13;19.40;;;;;;;41.98;35.87;101039.56;4869060;29;20494;-85
2023/01/24 08:23:14;;;;;;;33.30;19.70;;;;;;;42.01;35.54;101039.72;4888912;29;20918;-85
2023/01/24 08:25:40;;;;;;;20.80;17.03;;;;;;;42.01;35.40;101047.88;4868964;29;21065;-85
2023/01/24 08:28:06;;;;;;;27.13;16.43;;;;;;;41.87;36.05;101041.91;4882257;29;20434;-85
2023/01/24 08:30:32;;;;;;;25.67;17.37;;;;;;;41.95;35.74;101046.47;4875251;29;20442;-87
2023/01/24 08:33:03;;;;;;;24.60;18.70;;;;;;;41.81;35.77;101045.94;4883144;29;20483;-82
2023/01/24 08:35:30;;;;;;;23.03;18.00;;;;;;;41.95;35.90;101040.25;4864727;29;20431;-80
2023/01/24 08:37:56;;;;;;;27.70;18.30;;;;;;;41.90;35.49;101054.03;4871607;29;20939;-87
2023/01/24 08:40:22;;;;;;;26.87;17.07;;;;;;;41.90;35.86;101052.13;4880383;29;20821;-85
2023/01/24 08:42:48;;;;;;;43.87;18.63;;;;;;;41.84;35.55;101051.50;4880234;29;20938;-84
2023/01/24 08:45:14;;;;;;;26.27;19.50;;;;;;;41.91;35.82;101047.47;4874278;29;20490;-85
2023/01/24 08:47:41;;;;;;;35.47;17.37;;;;;;;42.05;35.66;101051.56;4879750;29;20442;-88
2023/01/24 08:50:09;;;;;;;32.23;17.00;;;;;;;42.04;35.66;101051.88;4870392;29;20420;-86
2023/01/24 08:52:35;;;;;;;26.03;17.03;;;;;;;42.16;35.29;101049.25;4881768;29;20933;-86
2023/01/24 08:55:01;;;;;;;23.83;17.43;;;;;;;42.06;35.21;101055.88;4890939;29;20571;-86
2023/01/24 08:57:27;;;;;;;28.40;16.37;;;;;;;42.14;35.61;101059.66;4882470;29;20957;-87
2023/01/24 08:59:53;;;;;;;34.53;17.33;;;;;;;42.17;35.50;101058.22;4889955;29;20495;-87
2023/01/24 09:02:19;;;;;;;34.77;16.83;;;;;;;42.20;35.38;101061.09;4876972;29;20482;-87
2023/01/24 09:04:45;;;;;;;33.67;18.80;;;;;;;42.31;35.21;101054.13;4883779;29;20491;-87
2023/01/24 09:07:12;;;;;;;29.23;17.83;;;;;;;42.40;35.24;101056.78;4876220;29;20474;-87
2023/01/24 09:09:38;;;;;;;21.90;17.50;;;;;;;42.35;35.04;101056.97;4866010;29;20803;-87
2023/01/24 09:12:04;;;;;;;24.70;16.47;;;;;;;42.24;35.40;101053.06;4893616;29;20942;-88
2023/01/24 09:14:30;;;;;;;23.90;17.57;;;;;;;42.26;35.66;101050.81;4884994;29;20851;-87
2023/01/24 09:16:56;;;;;;;28.87;17.53;;;;;;;42.17;35.54;101047.31;4885378;29;20446;-92
2023/01/24 09:19:23;;;;;;;29.97;17.03;;;;;;;42.22;35.46;101056.09;4888465;29;20549;-89
2023/01/24 09:21:51;;;;;;;24.20;16.63;;;;;;;42.20;35.48;101063.03;4881949;29;20419;-91
2023/01/24 09:24:18;;;;;;;22.57;17.57;;;;;;;42.27;35.50;101058.63;4884852;29;20426;-90
2023/01/24 09:26:45;;;;;;;28.90;16.70;;;;;;;42.33;35.32;101056.50;4880261;29;20541;-91
2023/01/24 09:29:11;;;;;;;26.73;16.47;;;;;;;42.30;35.50;101062.66;4879477;29;20450;-90
2023/01/24 09:31:37;;;;;;;24.20;17.40;;;;;;;42.36;35.33;101056.66;4879977;29;20435;-91
2023/01/24 09:34:03;;;;;;;27.87;17.70;;;;;;;42.43;35.39;101052.59;4880357;29;20451;-91
2023/01/24 09:36:30;;;;;;;22.93;17.23;;;;;;;42.28;35.36;101062.97;4860668;29;20428;-92
2023/01/24 09:38:57;;;;;;;26.53;17.40;;;;;;;42.38;35.30;101054.38;4881801;29;20549;-90
2023/01/24 09:41:38;;;;;;;28.50;17.60;;;;;;;42.45;35.27;101053.84;4887631;29;20950;-84
2023/01/24 09:44:28;;;;;;;20.50;15.63;;;;;;;42.36;35.47;101051.22;4892553;29;20951;-87
2023/01/24 09:46:57;;;;;;;21.77;15.57;;;;;;;42.45;35.39;101058.50;4868289;29;20465;-88
2023/01/24 09:49:37;;;;;;;27.17;15.87;;;;;;;42.39;35.30;101049.72;4876393;29;20504;-87
2023/01/24 09:52:12;;;;;;;23.50;19.87;;;;;;;42.45;35.32;101051.13;4885701;29;20463;-89
2023/01/24 09:54:57;;;;;;;21.93;17.23;;;;;;;42.48;35.59;101055.94;4868519;29;20431;-86
2023/01/24 09:58:08;;;;;;;26.50;17.00;;;;;;;42.52;35.46;101056.03;4877066;29;20447;-86
2023/01/24 10:00:39;;;;;;;23.63;17.30;;;;;;;42.60;35.40;101058.75;4860370;29;20443;-88
2023/01/24 10:03:20;;;;;;;23.37;17.23;;;;;;;42.58;35.17;101054.75;4874865;29;20538;-85
2023/01/24 10:05:51;;;;;;;18.30;14.53;;;;;;;42.60;35.07;101050.56;4878831;29;20441;-83
2023/01/24 10:08:27;;;;;;;19.47;15.47;;;;;;;42.63;35.44;101057.25;4880186;29;20427;-84
2023/01/24 10:11:37;;;;;;;24.20;16.60;;;;;;;42.72;35.36;101057.97;4878771;29;20529;-84
2023/01/24 10:14:36;;;;;;;29.10;15.80;;;;;;;42.81;35.00;101052.44;4883357;29;20447;-89
2023/01/24 10:17:30;;;;;;;31.97;18.73;;;;;;;42.75;34.98;101049.13;4884791;29;20567;-89
2023/01/24 10:20:20;;;;;;;26.87;17.50;;;;;;;42.67;35.01;101049.22;4880752;29;20497;-90
2023/01/24 10:23:04;;;;;;;24.60;16.53;;;;;;;42.37;35.42;101044.63;4881897;29;20481;-90
2023/01/24 10:25:48;;;;;;;27.30;17.60;;;;;;;42.38;35.63;101035.31;4878964;29;20819;-90
2023/01/24 10:28:33;;;;;;;19.93;16.80;;;;;;;42.50;35.47;101036.50;4878680;29;20865;-90
2023/01/24 10:31:14;;;;;;;23.63;15.13;;;;;;;42.44;35.36;101029.66;4881108;29;20435;-91
2023/01/24 10:34:09;;;;;;;25.00;15.13;;;;;;;42.48;35.25;101027.84;4883533;29;20431;-90
2023/01/24 10:36:46;;;;;;;26.73;15.80;;;;;;;42.47;35.32;101018.06;4862868;29;20427;-89
2023/01/24 10:39:13;;;;;;;23.50;16.90;;;;;;;42.52;35.31;101024.09;4875468;29;20514;-88
2023/01/24 10:41:39;;;;;;;23.20;16.20;;;;;;;42.68;35.03;101016.16;4860079;29;20452;-90
2023/01/24 10:44:15;;;;;;;20.97;15.33;;;;;;;42.70;34.92;101019.31;4902081;29;20449;-90
2023/01/24 10:46:49;;;;;;;26.67;16.50;;;;;;;42.74;34.83;101003.88;4878565;29;20454;-90
2023/01/24 10:49:25;;;;;;;24.93;16.13;;;;;;;42.68;35.00;101013.41;4866168;29;20499;-89
2023/01/24 10:52:10;;;;;;;19.00;16.20;;;;;;;42.65;35.16;101003.97;4866029;29;20515;-90
2023/01/24 10:54:53;;;;;;;24.27;15.60;;;;;;;42.60;35.41;101008.81;4885491;29;20510;-90
2023/01/24 10:57:34;;;;;;;29.77;16.90;;;;;;;42.60;35.14;100996.00;4867201;29;20430;-90
2023/01/24 11:00:06;;;;;;;24.23;15.57;;;;;;;42.61;35.43;100996.81;4880862;29;20466;-84
2023/01/24 11:02:35;;;;;;;19.60;14.60;;;;;;;42.73;35.00;100985.94;4888174;29;20482;-83
2023/01/24 11:05:06;;;;;;;19.43;15.70;;;;;;;42.75;35.01;100980.91;4875721;29;20459;-83
2023/01/24 11:07:41;;;;;;;17.37;14.43;;;;;;;42.85;34.78;100987.88;4873322;29;21014;-84
2023/01/24 11:10:30;;;;;;;24.70;16.50;;;;;;;42.79;34.84;100984.59;4874096;29;20823;-87
2023/01/24 11:13:02;;;;;;;18.87;15.07;;;;;;;42.96;34.60;100982.78;4888500;29;20442;-87
2023/01/24 11:15:30;;;;;;;22.73;14.80;;;;;;;42.88;34.91;100977.09;4886188;29;20518;-90
2023/01/24 11:18:28;;;;;;;22.97;16.80;;;;;;;42.63;34.99;100986.34;4890742;29;20430;-89
2023/01/24 11:21:14;;;;;;;21.90;14.83;;;;;;;42.77;34.62;100988.75;4897255;29;20457;-89
2023/01/24 11:23:42;;;;;;;25.90;15.57;;;;;;;42.45;35.38;100990.34;4879032;29;20426;-89
2023/01/24 11:26:29;;;;;;;23.50;14.10;;;;;;;42.67;34.95;100984.53;4889183;29;20430;-89
2023/01/24 11:29:05;;;;;;;21.77;14.00;;;;;;;42.61;34.93;100978.50;4881669;29;20504;-89
2023/01/24 11:32:20;;;;;;;22.07;14.90;;;;;;;42.84;34.70;100973.44;4891396;29;20476;-88
2023/01/24 11:34:57;;;;;;;18.40;15.13;;;;;;;42.89;34.51;100962.28;4847440;29;20435;-89
2023/01/24 11:37:51;;;;;;;20.23;14.37;;;;;;;42.92;34.42;100960.84;4886368;29;20949;-89
2023/01/24 11:40:37;;;;;;;22.70;15.50;;;;;;;42.94;34.54;100955.81;4866352;29;20999;-89
2023/01/24 11:43:20;;;;;;;17.30;13.57;;;;;;;42.74;34.52;100952.06;4886525;29;20433;-89
2023/01/24 11:45:48;;;;;;;26.07;14.60;;;;;;;42.85;34.20;100942.31;4883494;29;20550;-89
2023/01/24 11:48:37;;;;;;;14.80;12.60;;;;;;;42.98;34.49;100954.06;4894846;29;20527;-89
2023/01/24 11:51:47;;;;;;;27.40;14.90;;;;;;;42.90;34.40;100942.06;4867272;29;20820;-89
2023/01/24 11:54:48;;;;;;;18.80;14.77;;;;;;;42.96;34.12;100939.91;4851662;29;21000;-89
2023/01/24 11:57:27;;;;;;;20.90;14.27;;;;;;;43.00;33.79;100937.34;4895626;29;20425;-84
2023/01/24 12:00:03;;;;;;;20.67;16.00;;;;;;;42.89;34.19;100932.28;4891063;29;21037;-88
2023/01/24 12:02:45;;;;;;;24.30;14.07;;;;;;;42.72;34.29;100926.22;4887534;29;20453;-87
2023/01/24 12:05:44;;;;;;;24.03;17.80;;;;;;;42.95;34.34;100923.88;4876813;29;20442;-87
2023/01/24 12:08:39;;;;;;;23.30;14.90;;;;;;;43.02;34.17;100914.00;4888957;29;20841;-88
2023/01/24 12:11:35;;;;;;;22.43;13.80;;;;;;;43.09;34.09;100907.97;4885789;29;20431;-87
2023/01/24 12:14:36;;;;;;;24.50;16.37;;;;;;;43.04;34.32;100908.22;4893286;29;20473;-87
2023/01/24 12:17:27;;;;;;;16.27;13.80;;;;;;;43.04;34.38;100903.56;4873438;29;20511;-84
2023/01/24 12:20:12;;;;;;;21.93;14.90;;;;;;;43.22;34.04;100893.22;4893568;29;20461;-88
2023/01/24 12:22:41;;;;;;;32.73;15.43;;;;;;;43.13;34.02;100887.84;4879993;29;20457;-85
2023/01/24 12:25:30;;;;;;;24.53;14.97;;;;;;;43.16;33.77;100884.47;4895672;29;20425;-87
2023/01/24 12:32:16;;;;;;;20.60;14.20;;;;;;;43.10;34.17;100872.19;4813043;29;20878;-96
2023/01/24 13:11:13;;;;;;;23.27;14.30;;;;;;;43.51;33.50;100803.97;4658856;30;20882;-94
2023/01/24 13:14:01;;;;;;;22.93;14.33;;;;;;;43.63;33.37;100809.38;4659712;30;20539;-88
2023/01/24 13:16:33;;;;;;;20.60;13.53;;;;;;;43.52;33.35;100794.63;4830310;29;20455;-94
2023/01/24 13:19:18;;;;;;;18.30;13.60;;;;;;;43.47;33.64;100786.69;4888047;29;20481;-95
2023/01/24 13:21:55;;;;;;;20.20;12.87;;;;;;;43.36;33.93;100789.09;4887787;29;20454;-95
2023/01/24 13:24:24;;;;;;;18.40;14.70;;;;;;;43.56;34.02;100779.94;4887877;29;20442;-95
2023/01/24 13:26:56;;;;;;;20.87;14.10;;;;;;;43.62;33.57;100780.47;4876826;29;20535;-96
2023/01/24 13:29:35;;;;;;;27.00;15.70;;;;;;;43.48;33.30;100775.41;4889409;29;20421;-94
2023/01/24 13:32:06;;;;;;;20.40;14.17;;;;;;;43.45;33.48;100771.44;4877854;29;20461;-94
2023/01/24 13:34:37;;;;;;;20.53;13.50;;;;;;;43.55;33.77;100761.16;4877957;29;20835;-94
2023/01/24 13:37:05;;;;;;;18.20;14.27;;;;;;;43.59;33.18;100762.84;4883923;29;20439;-94
2023/01/24 13:39:42;;;;;;;25.60;13.80;;;;;;;43.45;33.20;100763.22;4896204;29;20470;-94
2023/01/24 13:42:35;;;;;;;21.73;14.27;;;;;;;43.50;33.07;100753.22;4896192;29;20433;-94
2023/01/24 13:45:26;;;;;;;19.50;13.87;;;;;;;43.56;33.42;100746.34;4873495;29;20458;-94
2023/01/24 13:47:53;;;;;;;24.00;13.77;;;;;;;43.76;33.29;100741.81;4892973;29;20426;-94
2023/01/24 13:50:23;;;;;;;21.73;13.97;;;;;;;43.71;33.11;100732.75;4880632;29;20423;-94
2023/01/24 13:52:55;;;;;;;22.70;16.90;;;;;;;43.85;32.64;100724.16;4884191;29;20474;-94
2023/01/24 13:55:23;;;;;;;21.60;14.00;;;;;;;43.78;32.58;100731.34;4887141;29;20434;-92
2023/01/24 13:58:11;;;;;;;29.07;13.77;;;;;;;43.93;32.46;100725.13;4875661;29;20973;-86
2023/01/24 14:00:56;;;;;;;22.27;14.30;;;;;;;44.10;32.44;100715.78;4872986;29;20453;-88
2023/01/24 14:03:33;;;;;;;25.60;16.17;;;;;;;44.07;32.11;100716.47;4864061;29;21090;-87
2023/01/24 14:06:28;;;;;;;29.93;17.83;;;;;;;44.15;31.95;100713.59;4880894;29;20450;-93
2023/01/24 14:09:03;;;;;;;26.67;16.20;;;;;;;44.19;32.05;100705.47;4874329;29;20821;-92
2023/01/24 14:11:37;;;;;;;25.03;15.63;;;;;;;44.32;31.94;100708.91;4882574;29;20473;-92
2023/01/24 14:14:28;;;;;;;23.43;16.00;;;;;;;44.10;32.49;100711.13;4875153;29;20789;-92
2023/01/24 14:16:57;;;;;;;24.73;16.17;;;;;;;44.15;32.36;100707.31;4885127;29;20446;-87
2023/01/24 14:19:33;;;;;;;24.67;18.10;;;;;;;44.40;31.91;100714.22;4886145;29;20571;-87
2023/01/24 14:22:04;;;;;;;18.37;14.20;;;;;;;44.44;31.91;100709.59;4868063;29;20437;-87
2023/01/24 14:24:33;;;;;;;24.93;14.93;;;;;;;44.40;32.80;100711.47;4866877;29;20438;-93
2023/01/24 14:27:15;;;;;;;26.73;15.40;;;;;;;44.31;32.81;100708.13;4867176;29;20967;-92
2023/01/24 14:29:44;;;;;;;26.00;14.33;;;;;;;44.48;32.56;100709.69;4865920;29;20434;-87
2023/01/24 14:32:25;;;;;;;23.33;15.50;;;;;;;44.55;32.26;100700.84;4881168;29;20502;-88
2023/01/24 14:35:42;;;;;;;18.03;14.57;;;;;;;44.63;32.72;100686.19;4890031;29;20521;-91
2023/01/24 14:38:15;;;;;;;22.97;15.60;;;;;;;44.67;32.20;100695.28;4868992;29;20945;-92
2023/01/24 14:40:42;;;;;;;28.50;14.40;;;;;;;44.86;31.71;100703.53;4890418;29;20454;-93
2023/01/24 14:43:13;;;;;;;27.73;17.10;;;;;;;44.94;31.55;100704.47;4895867;29;20446;-91
2023/01/24 14:45:42;;;;;;;18.40;14.70;;;;;;;44.72;32.32;100695.00;4886860;29;20435;-91
2023/01/24 14:48:10;;;;;;;22.23;14.23;;;;;;;44.87;31.67;100699.63;4865395;29;20429;-91
2023/01/24 14:50:38;;;;;;;20.53;14.80;;;;;;;44.91;31.51;100702.44;4866428;29;20435;-87
2023/01/24 14:53:28;;;;;;;28.17;15.20;;;;;;;45.06;31.34;100695.34;4882731;29;20465;-87
2023/01/24 14:56:00;;;;;;;16.10;14.03;;;;;;;45.10;31.02;100679.78;4891963;29;20520;-87
2023/01/24 14:58:28;;;;;;;27.77;18.87;;;;;;;45.12;31.23;100678.28;4906706;29;20428;-91
2023/01/24 15:00:59;;;;;;;27.63;16.70;;;;;;;45.33;30.88;100685.31;4893010;29;20941;-92
2023/01/24 15:03:31;;;;;;;18.97;15.73;;;;;;;45.45;30.87;100677.75;4894425;29;20456;-92
2023/01/24 15:06:02;;;;;;;29.93;16.70;;;;;;;45.56;30.52;100675.22;4894702;29;20441;-93
2023/01/24 15:08:30;;;;;;;23.37;17.30;;;;;;;45.66;30.48;100671.06;4899509;29;20477;-92
2023/01/24 15:11:05;;;;;;;29.03;15.87;;;;;;;45.60;30.35;100675.28;4907425;29;20558;-93
2023/01/24 15:13:49;;;;;;;27.40;13.23;;;;;;;45.76;30.11;100681.47;4898013;29;20461;-93
2023/01/24 15:16:22;;;;;;;31.43;15.93;;;;;;;45.83;30.15;100673.34;4897117;29;20458;-92
2023/01/24 15:18:52;;;;;;;27.60;17.30;;;;;;;45.82;30.07;100660.81;4881481;29;20502;-92
2023/01/24 15:21:32;;;;;;;18.90;14.07;;;;;;;45.91;30.09;100661.34;4894095;29;20532;-87
2023/01/24 15:23:59;;;;;;;27.87;17.23;;;;;;;46.09;29.76;100654.19;4897844;29;20432;-88
2023/01/24 15:26:37;;;;;;;21.53;14.87;;;;;;;46.30;29.46;100645.53;4899559;29;20441;-91
2023/01/24 15:29:37;;;;;;;22.43;17.23;;;;;;;46.34;29.53;100642.81;4901711;29;20543;-91
2023/01/24 15:32:28;;;;;;;24.13;15.80;;;;;;;46.34;29.50;100627.16;4899088;29;20428;-92
2023/01/24 15:35:22;;;;;;;20.17;14.97;;;;;;;46.42;29.48;100632.75;4894939;29;20496;-93
2023/01/24 15:38:25;;;;;;;27.70;18.20;;;;;;;46.56;29.38;100631.00;4898096;29;20508;-93
2023/01/24 15:41:20;;;;;;;21.10;15.67;;;;;;;46.56;29.53;100631.00;4904255;29;20444;-92
2023/01/24 16:05:39;;;;;;;22.73;15.73;;;;;;;47.00;29.01;100633.13;5184210;22;22292366;-88
2023/01/24 16:08:30;;;;;;;22.87;13.97;;;;;;;47.55;27.69;100627.78;6206627;23;20220;-88
2023/01/24 16:11:07;;;;;;;22.40;14.60;;;;;;;47.33;28.28;100624.09;6226954;23;20785;-89
2023/01/24 16:13:37;;;;;;;18.27;14.93;;;;;;;47.09;28.18;100624.59;6226689;23;20404;-89
2023/01/24 16:16:14;;;;;;;23.27;16.40;;;;;;;46.92;28.84;100639.69;6226150;23;20396;-89
2023/01/24 16:18:41;;;;;;;28.00;17.40;;;;;;;46.88;28.93;100638.06;6226406;23;20380;-88
2023/01/24 16:21:08;;;;;;;26.23;15.13;;;;;;;46.56;29.01;100630.22;6226452;23;20381;-88
2023/01/24 16:23:34;;;;;;;21.90;14.80;;;;;;;46.57;28.95;100635.31;6231831;23;20490;-89
2023/01/24 16:26:21;;;;;;;20.90;15.87;;;;;;;46.62;28.92;100630.69;6222121;23;20852;-93
2023/01/24 16:28:47;;;;;;;25.93;17.40;;;;;;;46.60;28.74;100637.34;6224056;23;20476;-89
2023/01/24 16:31:21;;;;;;;26.93;16.40;;;;;;;47.04;28.28;100639.44;6226044;23;20369;-89
2023/01/24 16:34:22;;;;;;;19.10;15.23;;;;;;;47.72;27.49;100640.13;6225883;23;20389;-89
2023/01/24 16:37:21;;;;;;;;;;;;;;;;;;;;;
2023/01/24 16:40:00;;;;;;;23.40;13.50;;;;;;;47.60;27.72;100627.47;6251870;23;20476;-89
2023/01/24 16:42:29;;;;;;;21.67;14.47;;;;;;;47.49;28.15;100621.06;6224195;23;20377;-86
2023/01/24 16:44:59;;;;;;;19.67;14.20;;;;;;;47.43;28.35;100621.78;6224330;23;20523;-86
2023/01/24 16:47:35;;;;;;;24.13;15.50;;;;;;;47.24;28.10;100628.28;6224480;23;20392;-87
2023/01/24 16:50:02;;;;;;;23.60;13.17;;;;;;;47.00;28.48;100629.59;6223761;23;20438;-88
2023/01/24 16:56:17;;;;;;;22.23;14.80;;;;;;;46.55;28.68;100637.66;6176213;22;20454;-88
2023/01/24 16:58:53;;;;;;;;;;;;;;;;;;;;;
2023/01/24 17:01:24;;;;;;;19.73;14.20;;;;;;;46.29;29.54;100635.72;6192252;23;20453;-88
2023/01/24 17:04:31;;;;;;;;;;;;;;;;;;;;;
2023/01/24 17:07:36;;;;;;;19.47;14.23;;;;;;;46.12;29.98;100649.16;6185106;23;20501;-92
2023/01/24 17:10:10;;;;;;;20.10;14.33;;;;;;;46.01;29.36;100657.97;6184038;23;20375;-90
2023/01/24 17:12:53;;;;;;;17.47;13.57;;;;;;;45.84;30.10;100654.97;6158769;23;20402;-90
2023/01/24 17:16:02;;;;;;;22.87;14.17;;;;;;;45.63;30.27;100664.38;6159037;23;20466;-92
2023/01/24 17:18:28;;;;;;;23.50;15.93;;;;;;;45.38;30.72;100663.16;6183778;23;20455;-91
2023/01/24 17:21:24;;;;;;;;;;;;;;;;;;;;;
2023/01/24 17:24:31;;;;;;;;;;;;;;;;;;;;;
2023/01/24 17:26:58;;;;;;;20.80;14.17;;;;;;;44.73;31.51;100674.69;6181376;23;20795;-92
2023/01/24 17:29:49;;;;;;;18.13;15.00;;;;;;;44.48;31.89;100679.59;6163560;23;20429;-88
2023/01/24 17:32:15;;;;;;;29.83;15.37;;;;;;;44.39;32.47;100685.28;6156418;23;20381;-92
2023/01/24 17:34:41;;;;;;;19.80;14.57;;;;;;;44.30;32.17;100687.41;6159466;23;20795;-92
2023/01/24 17:37:08;;;;;;;25.50;16.60;;;;;;;44.21;32.31;100687.59;6158554;23;20376;-92
2023/01/24 17:39:36;;;;;;;26.93;15.70;;;;;;;44.15;32.92;100690.94;6158583;23;20395;-92
2023/01/24 17:42:02;;;;;;;20.30;14.80;;;;;;;44.10;32.87;100681.03;6159475;23;20434;-89
2023/01/24 17:44:51;;;;;;;;;;;;;;;;;;;;;
2023/01/24 17:47:28;;;;;;;29.33;18.67;;;;;;;44.02;33.13;100686.69;6188266;23;20448;-94
2023/01/24 17:50:04;;;;;;;;;;;;;;;;;;;;;
2023/01/24 17:52:35;;;;;;;17.73;14.57;;;;;;;43.89;33.56;100705.09;6183592;23;20790;-86
2023/01/24 17:55:20;;;;;;;;;;;;;;;;;;;;;
2023/01/24 17:57:49;;;;;;;22.43;14.67;;;;;;;43.75;33.80;100701.97;6185333;23;20471;-91
2023/01/24 18:00:21;;;;;;;19.07;14.93;;;;;;;43.72;33.55;100720.66;6181690;23;20943;-84
2023/01/24 18:06:18;;;;;;;;;;;;;;;;;;;;;
2023/01/24 18:08:47;;;;;;;20.23;13.17;;;;;;;43.68;33.56;100722.50;6184453;23;20466;-88
2023/01/24 18:11:15;;;;;;;16.90;14.10;;;;;;;43.60;34.20;100726.19;6183534;23;20395;-92
2023/01/24 18:13:42;;;;;;;25.13;20.13;;;;;;;43.66;33.78;100729.47;6183413;23;20395;-90
2023/01/24 18:16:11;;;;;;;21.23;15.40;;;;;;;43.57;34.20;100732.34;6185202;23;20471;-93
2023/01/24 18:18:39;;;;;;;19.77;16.30;;;;;;;43.49;34.34;100736.03;6184622;23;20381;-87
2023/01/24 18:21:14;;;;;;;26.10;15.33;;;;;;;43.49;33.99;100740.72;6180905;23;20384;-88
2023/01/24 18:23:40;;;;;;;28.33;17.80;;;;;;;43.62;34.16;100744.97;6190218;23;20465;-89
2023/01/24 18:26:08;;;;;;;28.03;17.87;;;;;;;43.41;34.03;100743.25;6196474;23;20387;-86
2023/01/24 18:28:35;;;;;;;19.47;14.63;;;;;;;43.36;34.44;100737.19;6194240;23;20754;-90
2023/01/24 18:31:07;;;;;;;32.97;18.47;;;;;;;43.35;34.00;100750.06;6195576;23;20376;-93
2023/01/24 18:33:33;;;;;;;21.20;15.13;;;;;;;43.23;34.80;100754.78;6205309;23;20380;-92
2023/01/24 18:35:59;;;;;;;29.13;16.90;;;;;;;43.27;34.64;100750.19;6216344;23;20390;-92
2023/01/24 18:38:27;;;;;;;35.70;16.43;;;;;;;43.16;34.84;100755.34;6215591;23;20383;-94
2023/01/24 18:40:53;;;;;;;25.50;17.80;;;;;;;43.21;34.62;100765.22;6194665;23;20157;-94
2023/01/24 18:43:19;;;;;;;24.83;15.30;;;;;;;43.21;34.46;100759.75;6219283;23;20497;-88
2023/01/24 18:45:45;;;;;;;27.53;17.00;;;;;;;43.24;34.48;100770.78;6214057;23;20380;-89
2023/01/24 18:48:11;;;;;;;22.33;15.97;;;;;;;43.15;34.42;100767.41;6215593;23;20148;-93
2023/01/24 18:50:37;;;;;;;26.43;17.60;;;;;;;43.10;34.71;100784.81;6214844;23;20496;-94
2023/01/24 18:53:03;;;;;;;35.67;19.20;;;;;;;43.20;34.95;100783.53;6213847;23;20230;-88
2023/01/24 18:55:29;;;;;;;23.40;16.83;;;;;;;43.21;34.77;100776.94;6212991;23;20253;-94
2023/01/24 18:57:55;;;;;;;25.57;17.87;;;;;;;43.23;34.52;100787.53;6211790;23;20387;-90
2023/01/24 19:00:23;;;;;;;24.97;14.73;;;;;;;43.20;34.38;100794.47;6213280;23;20184;-92
2023/01/24 19:02:50;;;;;;;27.43;16.80;;;;;;;43.17;34.51;100795.94;6216053;23;20434;-90
2023/01/24 19:05:16;;;;;;;24.80;16.57;;;;;;;43.20;34.47;100805.38;6211926;23;20410;-84
2023/01/24 19:07:44;;;;;;;26.50;18.47;;;;;;;43.27;34.79;100821.97;6210902;23;20391;-84